createdAt,value
2023-01-21T00:00:00.286Z,-7.8
2023-01-21T00:01:00.308Z,-7.8
2023-01-21T00:02:00.323Z,-7.7
2023-01-21T00:03:00.295Z,-7.7
2023-01-21T00:04:00.279Z,-7.7
2023-01-21T00:05:00.394Z,-7.7
2023-01-21T00:06:00.292Z,-7.7
2023-01-21T00:07:00.312Z,-7.7
2023-01-21T00:08:02.561Z,-7.7
2023-01-21T00:09:00.282Z,-7.8
2023-01-21T00:10:00.284Z,-7.8
2023-01-21T00:11:00.304Z,-7.8
2023-01-21T00:12:00.290Z,-7.8
2023-01-21T00:13:00.323Z,-7.8
2023-01-21T00:14:00.287Z,-7.8
2023-01-21T00:15:00.295Z,-7.8
2023-01-21T00:16:00.368Z,-7.8
2023-01-21T00:17:00.292Z,-7.8
2023-01-21T00:18:00.292Z,-7.8
2023-01-21T00:19:00.299Z,-7.9
2023-01-21T00:20:00.313Z,-7.9
2023-01-21T00:21:00.323Z,-7.9
2023-01-21T00:22:00.297Z,-7.9
2023-01-21T00:23:00.310Z,-7.9
2023-01-21T00:24:00.299Z,-7.9
2023-01-21T00:25:00.317Z,-7.9
2023-01-21T00:26:00.312Z,-7.9
2023-01-21T00:27:00.311Z,-7.9
2023-01-21T00:28:00.328Z,-7.9
2023-01-21T00:29:00.303Z,-7.9
2023-01-21T00:30:00.320Z,-7.9
2023-01-21T00:31:00.434Z,-7.9
2023-01-21T00:32:00.356Z,-7.9
2023-01-21T00:33:00.311Z,-7.9
2023-01-21T00:34:00.310Z,-7.9
2023-01-21T00:35:00.331Z,-7.9
2023-01-21T00:36:00.306Z,-7.9
2023-01-21T00:37:00.309Z,-7.9
2023-01-21T00:38:00.325Z,-7.9
2023-01-21T00:39:00.310Z,-7.9
2023-01-21T00:40:00.333Z,-7.9
2023-01-21T00:41:00.332Z,-7.9
2023-01-21T00:42:00.320Z,-7.9
2023-01-21T00:43:00.348Z,-7.9
2023-01-21T00:44:00.334Z,-8
2023-01-21T00:45:00.336Z,-7.9
2023-01-21T00:46:00.363Z,-8
2023-01-21T00:47:00.337Z,-8
2023-01-21T00:48:00.324Z,-8
2023-01-21T00:49:00.354Z,-8
2023-01-21T00:50:00.337Z,-8
2023-01-21T00:51:00.434Z,-8.1
2023-01-21T00:52:00.356Z,-8.1
2023-01-21T00:53:00.325Z,-8.1
2023-01-21T00:54:00.326Z,-8.1
2023-01-21T00:55:00.347Z,-8.1
2023-01-21T00:56:00.377Z,-8.1
2023-01-21T00:57:00.326Z,-8.1
2023-01-21T00:58:00.339Z,-8.1
2023-01-21T00:59:00.340Z,-8.1
2023-01-21T01:00:00.371Z,-8.1
2023-01-21T01:01:00.350Z,-8.1
2023-01-21T01:02:00.336Z,-8.1
2023-01-21T01:03:00.401Z,-8.1
2023-01-21T01:04:00.353Z,-8.1
2023-01-21T01:05:00.370Z,-8
2023-01-21T01:06:00.360Z,-8
2023-01-21T01:07:00.353Z,-8
2023-01-21T01:08:00.354Z,-7.9
2023-01-21T01:09:00.343Z,-8
2023-01-21T01:10:00.364Z,-7.9
2023-01-21T01:11:00.381Z,-7.9
2023-01-21T01:12:00.348Z,-7.9
2023-01-21T01:13:00.351Z,-7.9
2023-01-21T01:14:00.357Z,-7.9
2023-01-21T01:15:01.122Z,-7.9
2023-01-21T01:16:00.469Z,-7.9
2023-01-21T01:17:00.362Z,-7.9
2023-01-21T01:18:00.363Z,-7.9
2023-01-21T01:19:00.348Z,-7.9
2023-01-21T01:20:00.369Z,-7.9
2023-01-21T01:21:00.366Z,-7.9
2023-01-21T01:22:00.357Z,-7.9
2023-01-21T01:23:00.359Z,-7.8
2023-01-21T01:24:00.364Z,-7.8
2023-01-21T01:25:00.405Z,-7.8
2023-01-21T01:26:00.370Z,-7.8
2023-01-21T01:27:00.359Z,-7.8
2023-01-21T01:28:00.361Z,-7.8
2023-01-21T01:29:00.365Z,-7.8
2023-01-21T01:30:00.396Z,-7.8
2023-01-21T01:31:00.483Z,-7.9
2023-01-21T01:32:00.364Z,-7.9
2023-01-21T01:33:00.364Z,-7.9
2023-01-21T01:34:00.368Z,-7.9
2023-01-21T01:35:00.408Z,-8
2023-01-21T01:36:00.364Z,-8
2023-01-21T01:37:00.370Z,-8
2023-01-21T01:38:00.367Z,-8.1
2023-01-21T01:39:00.376Z,-8.1
2023-01-21T01:40:00.388Z,-8.1
2023-01-21T01:41:00.373Z,-8.1
2023-01-21T01:42:00.370Z,-8.2
2023-01-21T01:43:00.374Z,-8.2
2023-01-21T01:44:00.390Z,-8.2
2023-01-21T01:45:00.411Z,-8.2
2023-01-21T01:46:00.468Z,-8.2
2023-01-21T01:47:00.378Z,-8.2
2023-01-21T01:48:00.378Z,-8.2
2023-01-21T01:49:00.390Z,-8.2
2023-01-21T01:50:00.402Z,-8.2
2023-01-21T01:51:00.437Z,-8.2
2023-01-21T01:52:00.391Z,-8.2
2023-01-21T01:53:00.387Z,-8.2
2023-01-21T01:54:00.385Z,-8.2
2023-01-21T01:55:00.410Z,-8.1
2023-01-21T01:56:00.407Z,-8.2
2023-01-21T01:57:00.411Z,-8.2
2023-01-21T01:58:00.411Z,-8.1
2023-01-21T01:59:00.393Z,-8.1
2023-01-21T02:00:00.424Z,-8.1
2023-01-21T02:01:00.408Z,-8.1
2023-01-21T02:02:00.451Z,-8.1
2023-01-21T02:03:00.470Z,-8.1
2023-01-21T02:04:00.412Z,-8.1
2023-01-21T02:05:00.415Z,-8
2023-01-21T02:06:00.398Z,-8
2023-01-21T02:07:00.411Z,-8
2023-01-21T02:08:00.415Z,-8.1
2023-01-21T02:09:00.422Z,-8.1
2023-01-21T02:10:00.411Z,-8.1
2023-01-21T02:11:00.490Z,-8.1
2023-01-21T02:12:00.406Z,-8.1
2023-01-21T02:13:00.406Z,-8.2
2023-01-21T02:14:00.433Z,-8.2
2023-01-21T02:15:00.411Z,-8.2
2023-01-21T02:16:00.448Z,-8.2
2023-01-21T02:17:00.429Z,-8.2
2023-01-21T02:18:00.528Z,-8.2
2023-01-21T02:19:00.457Z,-8.3
2023-01-21T02:20:00.460Z,-8.3
2023-01-21T02:21:00.582Z,-8.3
2023-01-21T02:22:00.458Z,-8.3
2023-01-21T02:23:00.549Z,-8.3
2023-01-21T02:24:00.516Z,-8.3
2023-01-21T02:25:00.470Z,-8.3
2023-01-21T02:26:00.535Z,-8.3
2023-01-21T02:27:00.501Z,-8.3
2023-01-21T02:28:00.517Z,-8.3
2023-01-21T02:29:00.512Z,-8.3
2023-01-21T02:30:00.505Z,-8.3
2023-01-21T02:31:00.685Z,-8.3
2023-01-21T02:32:00.558Z,-8.3
2023-01-21T02:33:00.527Z,-8.3
2023-01-21T02:34:00.600Z,-8.2
2023-01-21T02:35:00.482Z,-8.2
2023-01-21T02:36:00.521Z,-8.2
2023-01-21T02:37:00.535Z,-8.1
2023-01-21T02:38:00.539Z,-8.1
2023-01-21T02:39:00.460Z,-8.1
2023-01-21T02:40:00.481Z,-8
2023-01-21T02:41:00.464Z,-7.9
2023-01-21T02:42:00.482Z,-7.9
2023-01-21T02:43:00.437Z,-7.9
2023-01-21T02:44:00.435Z,-7.8
2023-01-21T02:45:00.465Z,-7.8
2023-01-21T02:46:00.451Z,-7.8
2023-01-21T02:47:00.439Z,-7.8
2023-01-21T02:48:00.475Z,-7.8
2023-01-21T02:49:00.485Z,-7.7
2023-01-21T02:50:00.489Z,-7.7
2023-01-21T02:51:00.498Z,-7.7
2023-01-21T02:52:00.446Z,-7.7
2023-01-21T02:53:00.462Z,-7.7
2023-01-21T02:54:00.448Z,-7.7
2023-01-21T02:55:00.487Z,-7.7
2023-01-21T02:56:00.449Z,-7.7
2023-01-21T02:57:00.454Z,-7.7
2023-01-21T02:58:00.456Z,-7.7
2023-01-21T02:59:00.488Z,-7.6
2023-01-21T03:00:00.477Z,-7.7
2023-01-21T03:01:01.656Z,-7.6
2023-01-21T03:02:01.612Z,-7.6
2023-01-21T03:03:01.588Z,-7.6
2023-01-21T03:04:01.574Z,-7.6
2023-01-21T03:05:01.602Z,-7.6
2023-01-21T03:06:01.582Z,-7.6
2023-01-21T03:07:01.637Z,-7.6
2023-01-21T03:08:01.609Z,-7.6
2023-01-21T03:09:01.585Z,-7.6
2023-01-21T03:10:01.599Z,-7.6
2023-01-21T03:11:01.613Z,-7.6
2023-01-21T03:12:01.584Z,-7.6
2023-01-21T03:13:01.604Z,-7.6
2023-01-21T03:14:01.608Z,-7.6
2023-01-21T03:15:01.632Z,-7.6
2023-01-21T03:16:01.676Z,-7.6
2023-01-21T03:17:01.625Z,-7.7
2023-01-21T03:18:01.596Z,-7.7
2023-01-21T03:19:01.605Z,-7.7
2023-01-21T03:20:01.646Z,-7.7
2023-01-21T03:21:01.612Z,-7.7
2023-01-21T03:22:01.600Z,-7.7
2023-01-21T03:23:01.602Z,-7.7
2023-01-21T03:24:01.596Z,-7.7
2023-01-21T03:25:00.193Z,-7.7
2023-01-21T03:26:00.208Z,-7.7
2023-01-21T03:27:00.206Z,-7.7
2023-01-21T03:28:00.189Z,-7.7
2023-01-21T03:29:00.202Z,-7.7
2023-01-21T03:30:00.258Z,-7.6
2023-01-21T03:31:00.276Z,-7.6
2023-01-21T03:32:00.208Z,-7.6
2023-01-21T03:33:00.200Z,-7.6
2023-01-21T03:34:00.237Z,-7.6
2023-01-21T03:35:00.195Z,-7.6
2023-01-21T03:36:00.237Z,-7.6
2023-01-21T03:37:00.198Z,-7.6
2023-01-21T03:38:00.201Z,-7.6
2023-01-21T03:39:00.245Z,-7.6
2023-01-21T03:40:00.231Z,-7.6
2023-01-21T03:41:00.218Z,-7.6
2023-01-21T03:42:00.228Z,-7.6
2023-01-21T03:43:00.209Z,-7.5
2023-01-21T03:44:00.209Z,-7.5
2023-01-21T03:45:00.256Z,-7.5
2023-01-21T03:46:00.261Z,-7.5
2023-01-21T03:47:00.208Z,-7.5
2023-01-21T03:48:00.242Z,-7.5
2023-01-21T03:49:00.212Z,-7.4
2023-01-21T03:50:00.230Z,-7.4
2023-01-21T03:51:00.363Z,-7.5
2023-01-21T03:52:00.214Z,-7.5
2023-01-21T03:53:00.251Z,-7.5
2023-01-21T03:54:00.266Z,-7.5
2023-01-21T03:55:00.218Z,-7.5
2023-01-21T03:56:00.223Z,-7.4
2023-01-21T03:57:00.231Z,-7.4
2023-01-21T03:58:00.307Z,-7.5
2023-01-21T03:59:00.217Z,-7.4
2023-01-21T04:00:00.221Z,-7.5
2023-01-21T04:01:00.271Z,-7.5
2023-01-21T04:02:00.265Z,-7.5
2023-01-21T04:03:00.245Z,-7.5
2023-01-21T04:04:00.273Z,-7.5
2023-01-21T04:05:00.275Z,-7.5
2023-01-21T04:06:00.260Z,-7.5
2023-01-21T04:07:00.236Z,-7.5
2023-01-21T04:08:00.254Z,-7.5
2023-01-21T04:09:00.246Z,-7.6
2023-01-21T04:10:00.243Z,-7.6
2023-01-21T04:11:00.232Z,-7.6
2023-01-21T04:12:00.259Z,-7.6
2023-01-21T04:13:00.254Z,-7.6
2023-01-21T04:14:00.240Z,-7.6
2023-01-21T04:15:00.251Z,-7.6
2023-01-21T04:16:00.236Z,-7.6
2023-01-21T04:17:00.265Z,-7.6
2023-01-21T04:18:00.248Z,-7.6
2023-01-21T04:19:00.254Z,-7.6
2023-01-21T04:20:00.270Z,-7.6
2023-01-21T04:21:00.264Z,-7.6
2023-01-21T04:22:00.269Z,-7.6
2023-01-21T04:23:00.243Z,-7.6
2023-01-21T04:24:00.245Z,-7.6
2023-01-21T04:25:00.258Z,-7.6
2023-01-21T04:26:00.247Z,-7.6
2023-01-21T04:27:00.264Z,-7.6
2023-01-21T04:28:00.248Z,-7.6
2023-01-21T04:29:00.249Z,-7.6
2023-01-21T04:30:00.263Z,-7.6
2023-01-21T04:31:00.307Z,-7.6
2023-01-21T04:32:00.345Z,-7.6
2023-01-21T04:33:00.287Z,-7.6
2023-01-21T04:34:00.265Z,-7.6
2023-01-21T04:35:00.267Z,-7.6
2023-01-21T04:36:00.278Z,-7.6
2023-01-21T04:37:00.274Z,-7.6
2023-01-21T04:38:00.269Z,-7.6
2023-01-21T04:39:00.264Z,-7.6
2023-01-21T04:40:00.256Z,-7.6
2023-01-21T04:41:00.264Z,-7.6
2023-01-21T04:42:00.277Z,-7.5
2023-01-21T04:43:00.306Z,-7.5
2023-01-21T04:44:00.258Z,-7.5
2023-01-21T04:45:00.291Z,-7.4
2023-01-21T04:46:00.377Z,-7.4
2023-01-21T04:47:00.286Z,-7.4
2023-01-21T04:48:00.283Z,-7.3
2023-01-21T04:49:00.290Z,-7.3
2023-01-21T04:50:00.271Z,-7.2
2023-01-21T04:51:00.306Z,-7.2
2023-01-21T04:52:00.278Z,-7.2
2023-01-21T04:53:00.274Z,-7.2
2023-01-21T04:54:00.298Z,-7.2
2023-01-21T04:55:00.274Z,-7.2
2023-01-21T04:56:00.293Z,-7.2
2023-01-21T04:57:00.286Z,-7.1
2023-01-21T04:58:00.337Z,-7.1
2023-01-21T04:59:00.295Z,-7.1
2023-01-21T05:00:00.279Z,-7.1
2023-01-21T05:01:00.331Z,-7.1
2023-01-21T05:02:00.332Z,-7.1
2023-01-21T05:03:00.294Z,-7.1
2023-01-21T05:04:00.303Z,-7.1
2023-01-21T05:05:00.300Z,-7
2023-01-21T05:06:00.312Z,-7
2023-01-21T05:07:00.288Z,-7
2023-01-21T05:08:00.291Z,-7
2023-01-21T05:09:00.310Z,-6.9
2023-01-21T05:10:00.307Z,-6.9
2023-01-21T05:11:00.297Z,-6.9
2023-01-21T05:12:00.291Z,-6.9
2023-01-21T05:13:00.291Z,-6.9
2023-01-21T05:14:00.314Z,-6.9
2023-01-21T05:15:00.295Z,-6.9
2023-01-21T05:16:00.345Z,-6.9
2023-01-21T05:17:00.393Z,-6.9
2023-01-21T05:18:00.327Z,-6.9
2023-01-21T05:19:00.321Z,-6.9
2023-01-21T05:20:00.312Z,-6.9
2023-01-21T05:21:00.319Z,-6.9
2023-01-21T05:22:00.303Z,-6.9
2023-01-21T05:23:00.304Z,-6.9
2023-01-21T05:24:00.326Z,-6.8
2023-01-21T05:25:00.322Z,-6.8
2023-01-21T05:26:00.309Z,-6.8
2023-01-21T05:27:00.325Z,-6.8
2023-01-21T05:28:00.325Z,-6.8
2023-01-21T05:29:00.327Z,-6.8
2023-01-21T05:30:00.316Z,-6.8
2023-01-21T05:31:00.454Z,-6.8
2023-01-21T05:32:00.407Z,-6.8
2023-01-21T05:33:00.343Z,-6.8
2023-01-21T05:34:00.332Z,-6.8
2023-01-21T05:35:00.321Z,-6.8
2023-01-21T05:36:00.353Z,-6.7
2023-01-21T05:37:00.376Z,-6.7
2023-01-21T05:38:00.602Z,-6.7
2023-01-21T05:39:00.342Z,-6.7
2023-01-21T05:40:00.319Z,-6.7
2023-01-21T05:41:00.323Z,-6.7
2023-01-21T05:42:00.327Z,-6.7
2023-01-21T05:43:00.343Z,-6.7
2023-01-21T05:44:00.336Z,-6.7
2023-01-21T05:45:00.320Z,-6.7
2023-01-21T05:46:00.331Z,-6.7
2023-01-21T05:47:00.328Z,-6.7
2023-01-21T05:48:00.346Z,-6.6
2023-01-21T05:49:00.345Z,-6.6
2023-01-21T05:50:00.336Z,-6.6
2023-01-21T05:51:00.416Z,-6.6
2023-01-21T05:52:00.335Z,-6.6
2023-01-21T05:53:00.348Z,-6.6
2023-01-21T05:54:00.352Z,-6.6
2023-01-21T05:55:02.562Z,-6.6
2023-01-21T05:56:00.335Z,-6.6
2023-01-21T05:57:00.332Z,-6.6
2023-01-21T05:58:00.357Z,-6.6
2023-01-21T05:59:00.349Z,-6.6
2023-01-21T06:00:00.337Z,-6.6
2023-01-21T06:01:00.339Z,-6.6
2023-01-21T06:02:00.341Z,-6.6
2023-01-21T06:03:00.373Z,-6.6
2023-01-21T06:04:00.356Z,-6.6
2023-01-21T06:05:00.352Z,-6.6
2023-01-21T06:06:00.350Z,-6.6
2023-01-21T06:07:00.343Z,-6.6
2023-01-21T06:08:00.424Z,-6.6
2023-01-21T06:09:00.370Z,-6.6
2023-01-21T06:10:00.347Z,-6.6
2023-01-21T06:11:00.356Z,-6.6
2023-01-21T06:12:00.360Z,-6.6
2023-01-21T06:13:00.377Z,-6.6
2023-01-21T06:14:00.387Z,-6.6
2023-01-21T06:15:00.350Z,-6.6
2023-01-21T06:16:00.428Z,-6.6
2023-01-21T06:17:00.380Z,-6.6
2023-01-21T06:18:00.474Z,-6.6
2023-01-21T06:19:00.374Z,-6.6
2023-01-21T06:20:00.356Z,-6.6
2023-01-21T06:21:00.410Z,-6.6
2023-01-21T06:22:00.452Z,-6.5
2023-01-21T06:23:00.452Z,-6.5
2023-01-21T06:24:00.381Z,-6.5
2023-01-21T06:25:00.373Z,-6.5
2023-01-21T06:26:00.394Z,-6.5
2023-01-21T06:27:00.402Z,-6.5
2023-01-21T06:28:00.441Z,-6.5
2023-01-21T06:29:00.439Z,-6.5
2023-01-21T06:30:00.396Z,-6.5
2023-01-21T06:31:00.530Z,-6.4
2023-01-21T06:32:00.655Z,-6.4
2023-01-21T06:33:00.499Z,-6.4
2023-01-21T06:34:00.481Z,-6.4
2023-01-21T06:35:00.489Z,-6.4
2023-01-21T06:36:00.511Z,-6.4
2023-01-21T06:37:00.510Z,-6.4
2023-01-21T06:38:00.490Z,-6.4
2023-01-21T06:39:00.447Z,-6.4
2023-01-21T06:40:00.490Z,-6.3
2023-01-21T06:41:00.468Z,-6.3
2023-01-21T06:42:00.503Z,-6.3
2023-01-21T06:43:00.443Z,-6.3
2023-01-21T06:44:00.510Z,-6.3
2023-01-21T06:45:00.452Z,-6.3
2023-01-21T06:46:00.540Z,-6.3
2023-01-21T06:47:01.345Z,-6.2
2023-01-21T06:48:00.487Z,-6.2
2023-01-21T06:49:00.512Z,-6.2
2023-01-21T06:50:00.402Z,-6.2
2023-01-21T06:51:00.480Z,-6.2
2023-01-21T06:52:00.407Z,-6.2
2023-01-21T06:53:01.206Z,-6.2
2023-01-21T06:54:00.415Z,-6.2
2023-01-21T06:55:00.423Z,-6.2
2023-01-21T06:56:00.418Z,-6.2
2023-01-21T06:57:00.414Z,-6.2
2023-01-21T06:58:00.396Z,-6.2
2023-01-21T06:59:00.405Z,-6.2
2023-01-21T07:00:00.415Z,-6.2
2023-01-21T07:01:00.418Z,-6.2
2023-01-21T07:02:00.475Z,-6.2
2023-01-21T07:03:00.477Z,-6.2
2023-01-21T07:04:00.441Z,-6.2
2023-01-21T07:05:00.488Z,-6.2
2023-01-21T07:06:00.420Z,-6.2
2023-01-21T07:07:00.435Z,-6.2
2023-01-21T07:08:00.482Z,-6.2
2023-01-21T07:09:00.435Z,-6.2
2023-01-21T07:10:00.432Z,-6.2
2023-01-21T07:11:00.411Z,-6.1
2023-01-21T07:12:00.426Z,-6.1
2023-01-21T07:13:00.453Z,-6.1
2023-01-21T07:14:00.417Z,-6.1
2023-01-21T07:15:00.412Z,-6.1
2023-01-21T07:16:00.482Z,-6.1
2023-01-21T07:17:00.433Z,-6.1
2023-01-21T07:18:00.440Z,-6.1
2023-01-21T07:19:00.434Z,-6.1
2023-01-21T07:20:00.429Z,-6.1
2023-01-21T07:21:00.427Z,-6
2023-01-21T07:22:00.455Z,-6
2023-01-21T07:23:00.440Z,-6
2023-01-21T07:24:00.445Z,-6
2023-01-21T07:25:00.437Z,-5.9
2023-01-21T07:26:00.427Z,-5.9
2023-01-21T07:27:00.449Z,-5.9
2023-01-21T07:28:00.445Z,-5.9
2023-01-21T07:29:01.988Z,-5.9
2023-01-21T07:30:00.435Z,-5.9
2023-01-21T07:31:00.505Z,-5.8
2023-01-21T07:32:00.525Z,-5.8
2023-01-21T07:33:00.467Z,-5.8
2023-01-21T07:34:00.471Z,-5.8
2023-01-21T07:35:00.447Z,-5.8
2023-01-21T07:36:00.457Z,-5.7
2023-01-21T07:37:00.467Z,-5.6
2023-01-21T07:38:00.582Z,-5.6
2023-01-21T07:39:00.442Z,-5.6
2023-01-21T07:40:00.466Z,-5.6
2023-01-21T07:41:00.454Z,-5.5
2023-01-21T07:42:00.462Z,-5.5
2023-01-21T07:43:00.463Z,-5.4
2023-01-21T07:44:00.448Z,-5.4
2023-01-21T07:45:00.468Z,-5.4
2023-01-21T07:46:00.542Z,-5.3
2023-01-21T07:47:00.481Z,-5.2
2023-01-21T07:48:00.465Z,-5.2
2023-01-21T07:49:00.449Z,-5.2
2023-01-21T07:50:00.509Z,-5.2
2023-01-21T07:51:00.529Z,-5.1
2023-01-21T07:52:00.480Z,-5.1
2023-01-21T07:53:00.473Z,-5
2023-01-21T07:54:00.468Z,-5
2023-01-21T07:55:00.465Z,-4.9
2023-01-21T07:56:00.463Z,-4.9
2023-01-21T07:57:00.474Z,-4.8
2023-01-21T07:58:00.486Z,-4.8
2023-01-21T07:59:00.459Z,-4.7
2023-01-21T08:00:00.473Z,-4.6
2023-01-21T08:01:00.482Z,-4.6
2023-01-21T08:02:00.675Z,-4.5
2023-01-21T08:03:00.489Z,-4.5
2023-01-21T08:04:00.473Z,-4.4
2023-01-21T08:05:00.496Z,-4.4
2023-01-21T08:06:00.493Z,-4.4
2023-01-21T08:07:00.494Z,-4.3
2023-01-21T08:08:00.501Z,-4.2
2023-01-21T08:09:00.491Z,-4.2
2023-01-21T08:10:00.497Z,-4.2
2023-01-21T08:11:00.478Z,-4.1
2023-01-21T08:12:00.510Z,-4.1
2023-01-21T08:13:00.489Z,-4.1
2023-01-21T08:14:00.478Z,-4
2023-01-21T08:15:00.498Z,-3.9
2023-01-21T08:16:00.559Z,-3.9
2023-01-21T08:17:00.526Z,-3.9
2023-01-21T08:18:00.491Z,-3.8
2023-01-21T08:19:00.500Z,-3.8
2023-01-21T08:20:00.544Z,-3.8
2023-01-21T08:21:00.501Z,-3.8
2023-01-21T08:22:00.504Z,-3.7
2023-01-21T08:23:00.526Z,-3.6
2023-01-21T08:24:00.497Z,-3.6
2023-01-21T08:25:00.498Z,-3.6
2023-01-21T08:26:00.500Z,-3.5
2023-01-21T08:27:00.522Z,-3.5
2023-01-21T08:28:00.507Z,-3.4
2023-01-21T08:29:00.485Z,-3.4
2023-01-21T08:30:00.536Z,-3.3
2023-01-21T08:31:00.535Z,-3.3
2023-01-21T08:32:00.529Z,-3.2
2023-01-21T08:33:00.513Z,-3.2
2023-01-21T08:34:00.504Z,-3.2
2023-01-21T08:35:00.500Z,-3.1
2023-01-21T08:36:00.498Z,-3.1
2023-01-21T08:37:00.509Z,-3.1
2023-01-21T08:38:00.528Z,-3
2023-01-21T08:39:00.507Z,-2.9
2023-01-21T08:40:00.526Z,-2.9
2023-01-21T08:41:00.519Z,-2.9
2023-01-21T08:42:00.512Z,-2.9
2023-01-21T08:43:00.520Z,-2.8
2023-01-21T08:44:00.503Z,-2.9
2023-01-21T08:45:00.506Z,-2.8
2023-01-21T08:46:00.559Z,-2.8
2023-01-21T08:47:00.525Z,-2.8
2023-01-21T08:48:00.529Z,-2.8
2023-01-21T08:49:00.520Z,-2.8
2023-01-21T08:50:00.551Z,-2.8
2023-01-21T08:51:00.623Z,-2.7
2023-01-21T08:52:00.529Z,-2.7
2023-01-21T08:53:00.526Z,-2.7
2023-01-21T08:54:00.513Z,-2.6
2023-01-21T08:55:00.545Z,-2.6
2023-01-21T08:56:00.559Z,-2.6
2023-01-21T08:57:00.520Z,-2.6
2023-01-21T08:58:00.528Z,-2.4
2023-01-21T08:59:00.550Z,-2.4
2023-01-21T09:00:00.566Z,-2.3
2023-01-21T09:01:00.547Z,-2.2
2023-01-21T09:02:00.556Z,-2.2
2023-01-21T09:03:00.546Z,-2.1
2023-01-21T09:04:00.564Z,-2
2023-01-21T09:05:00.541Z,-1.9
2023-01-21T09:06:00.542Z,-1.9
2023-01-21T09:07:00.522Z,-1.8
2023-01-21T09:08:00.591Z,-1.8
2023-01-21T09:09:00.530Z,-1.8
2023-01-21T09:10:00.550Z,-1.7
2023-01-21T09:11:00.555Z,-1.7
2023-01-21T09:12:00.549Z,-1.7
2023-01-21T09:13:00.529Z,-1.7
2023-01-21T09:14:00.542Z,-1.6
2023-01-21T09:15:00.569Z,-1.6
2023-01-21T09:16:00.548Z,-1.6
2023-01-21T09:17:00.551Z,-1.6
2023-01-21T09:18:00.582Z,-1.6
2023-01-21T09:19:00.544Z,-1.6
2023-01-21T09:20:00.557Z,-1.5
2023-01-21T09:21:00.565Z,-1.6
2023-01-21T09:22:00.561Z,-1.5
2023-01-21T09:23:00.548Z,-1.5
2023-01-21T09:24:00.564Z,-1.5
2023-01-21T09:25:00.536Z,-1.5
2023-01-21T09:26:00.500Z,-1.4
2023-01-21T09:27:00.456Z,-1.4
2023-01-21T09:28:00.427Z,-1.4
2023-01-21T09:29:00.419Z,-1.4
2023-01-21T09:30:00.402Z,-1.4
2023-01-21T09:31:00.371Z,-1.3
2023-01-21T09:32:00.366Z,-1.3
2023-01-21T09:33:00.292Z,-1.2
2023-01-21T09:34:00.293Z,-1.2
2023-01-21T09:35:00.250Z,-1.2
2023-01-21T09:36:00.205Z,-1.2
2023-01-21T09:37:00.190Z,-1.2
2023-01-21T09:38:00.171Z,-1.1
2023-01-21T09:39:00.146Z,-1.1
2023-01-21T09:40:00.158Z,-1.1
2023-01-21T09:41:00.144Z,-1
2023-01-21T09:42:00.172Z,-1
2023-01-21T09:43:00.135Z,-0.9
2023-01-21T09:44:00.142Z,-0.9
2023-01-21T09:45:00.165Z,-0.9
2023-01-21T09:46:02.955Z,-0.9
2023-01-21T09:47:00.168Z,-0.8
2023-01-21T09:48:00.149Z,-0.8
2023-01-21T09:49:00.160Z,-0.8
2023-01-21T09:50:00.187Z,-0.8
2023-01-21T09:51:00.188Z,-0.7
2023-01-21T09:52:00.288Z,-0.8
2023-01-21T09:53:00.161Z,-0.7
2023-01-21T09:54:00.147Z,-0.7
2023-01-21T09:55:00.170Z,-0.7
2023-01-21T09:56:00.176Z,-0.7
2023-01-21T09:57:00.191Z,-0.7
2023-01-21T09:58:00.196Z,-0.7
2023-01-21T09:59:00.169Z,-0.7
2023-01-21T10:00:00.190Z,-0.8
2023-01-21T10:01:00.190Z,-0.8
2023-01-21T10:02:00.203Z,-0.8
2023-01-21T10:03:00.215Z,-0.7
2023-01-21T10:04:00.183Z,-0.8
2023-01-21T10:05:00.157Z,-0.8
2023-01-21T10:06:00.177Z,-0.7
2023-01-21T10:07:00.165Z,-0.7
2023-01-21T10:08:00.217Z,-0.6
2023-01-21T10:09:00.181Z,-0.6
2023-01-21T10:10:00.167Z,-0.6
2023-01-21T10:11:00.202Z,-0.6
2023-01-21T10:12:00.183Z,-0.6
2023-01-21T10:13:00.182Z,-0.6
2023-01-21T10:14:00.182Z,-0.6
2023-01-21T10:15:00.200Z,-0.6
2023-01-21T10:16:00.194Z,-0.6
2023-01-21T10:17:00.234Z,-0.6
2023-01-21T10:18:00.196Z,-0.6
2023-01-21T10:19:00.192Z,-0.6
2023-01-21T10:20:00.176Z,-0.6
2023-01-21T10:21:00.202Z,-0.6
2023-01-21T10:22:00.179Z,-0.4
2023-01-21T10:23:00.201Z,-0.5
2023-01-21T10:24:00.194Z,-0.4
2023-01-21T10:25:00.179Z,-0.4
2023-01-21T10:26:00.211Z,-0.4
2023-01-21T10:27:00.230Z,-0.4
2023-01-21T10:28:00.265Z,-0.4
2023-01-21T10:29:00.202Z,-0.4
2023-01-21T10:30:00.211Z,-0.5
2023-01-21T10:31:00.326Z,-0.4
2023-01-21T10:32:00.226Z,-0.4
2023-01-21T10:33:00.206Z,-0.4
2023-01-21T10:34:00.191Z,-0.4
2023-01-21T10:35:00.207Z,-0.4
2023-01-21T10:36:00.194Z,-0.4
2023-01-21T10:37:00.225Z,-0.5
2023-01-21T10:38:01.203Z,-0.5
2023-01-21T10:39:00.217Z,-0.4
2023-01-21T10:40:00.211Z,-0.4
2023-01-21T10:41:00.192Z,-0.4
2023-01-21T10:42:00.212Z,-0.4
2023-01-21T10:43:00.234Z,-0.4
2023-01-21T10:44:00.220Z,-0.5
2023-01-21T10:45:00.220Z,-0.4
2023-01-21T10:46:00.287Z,-0.4
2023-01-21T10:47:00.217Z,-0.4
2023-01-21T10:48:00.206Z,-0.4
2023-01-21T10:49:00.211Z,-0.4
2023-01-21T10:50:00.220Z,-0.4
2023-01-21T10:51:00.298Z,-0.4
2023-01-21T10:52:00.245Z,-0.4
2023-01-21T10:53:00.251Z,-0.4
2023-01-21T10:54:00.233Z,-0.4
2023-01-21T10:55:00.248Z,-0.4
2023-01-21T10:56:00.222Z,-0.4
2023-01-21T10:57:00.233Z,-0.4
2023-01-21T10:58:00.229Z,-0.4
2023-01-21T10:59:00.252Z,-0.4
2023-01-21T11:00:00.240Z,-0.4
2023-01-21T11:01:00.276Z,-0.4
2023-01-21T11:02:00.233Z,-0.4
2023-01-21T11:03:00.222Z,-0.4
2023-01-21T11:04:00.220Z,-0.4
2023-01-21T11:05:00.238Z,-0.4
2023-01-21T11:06:00.246Z,-0.4
2023-01-21T11:07:00.259Z,-0.4
2023-01-21T11:08:00.228Z,-0.6
2023-01-21T11:09:00.307Z,-0.6
2023-01-21T11:10:00.251Z,-0.6
2023-01-21T11:11:00.228Z,-0.6
2023-01-21T11:12:00.239Z,-0.6
2023-01-21T11:13:00.236Z,-0.6
2023-01-21T11:14:00.254Z,-0.7
2023-01-21T11:15:00.240Z,-0.7
2023-01-21T11:16:00.283Z,-0.7
2023-01-21T11:17:00.250Z,-0.6
2023-01-21T11:18:00.244Z,-0.6
2023-01-21T11:19:00.240Z,-0.6
2023-01-21T11:20:00.389Z,-0.5
2023-01-21T11:21:00.234Z,-0.4
2023-01-21T11:22:00.268Z,-0.4
2023-01-21T11:23:00.237Z,-0.4
2023-01-21T11:24:00.273Z,-0.3
2023-01-21T11:25:00.258Z,-0.3
2023-01-21T11:26:00.248Z,-0.2
2023-01-21T11:27:00.274Z,-0.2
2023-01-21T11:28:00.298Z,-0.1
2023-01-21T11:29:00.263Z,-0.1
2023-01-21T11:30:00.335Z,0
2023-01-21T11:31:00.363Z,-0.1
2023-01-21T11:32:00.454Z,-0.1
2023-01-21T11:33:01.166Z,-0.1
2023-01-21T11:34:00.253Z,-0.1
2023-01-21T11:35:00.260Z,-0.1
2023-01-21T11:36:00.273Z,-0.1
2023-01-21T11:37:00.277Z,-0.1
2023-01-21T11:38:00.263Z,-0.1
2023-01-21T11:39:00.280Z,-0.2
2023-01-21T11:40:00.269Z,-0.2
2023-01-21T11:41:00.257Z,-0.2
2023-01-21T11:42:00.277Z,-0.2
2023-01-21T11:43:00.300Z,-0.2
2023-01-21T11:44:00.258Z,-0.2
2023-01-21T11:45:00.292Z,-0.3
2023-01-21T11:46:00.277Z,-0.3
2023-01-21T11:47:00.289Z,-0.3
2023-01-21T11:48:00.339Z,-0.3
2023-01-21T11:49:00.272Z,-0.3
2023-01-21T11:50:00.289Z,-0.4
2023-01-21T11:51:00.304Z,-0.4
2023-01-21T11:52:00.288Z,-0.4
2023-01-21T11:53:01.930Z,-0.4
2023-01-21T11:54:00.290Z,-0.4
2023-01-21T11:55:00.292Z,-0.4
2023-01-21T11:56:00.275Z,-0.5
2023-01-21T11:57:00.293Z,-0.6
2023-01-21T11:58:00.348Z,-0.6
2023-01-21T11:59:00.288Z,-0.6
2023-01-21T12:00:00.354Z,-0.6
2023-01-21T12:01:00.299Z,-0.6
2023-01-21T12:02:00.287Z,-0.7
2023-01-21T12:03:00.456Z,-0.8
2023-01-21T12:04:00.344Z,-0.8
2023-01-21T12:05:00.317Z,-0.8
2023-01-21T12:06:00.298Z,-0.8
2023-01-21T12:07:00.290Z,-0.9
2023-01-21T12:08:00.330Z,-0.9
2023-01-21T12:09:00.312Z,-0.9
2023-01-21T12:10:00.306Z,-0.9
2023-01-21T12:11:00.282Z,-0.9
2023-01-21T12:12:00.286Z,-0.9
2023-01-21T12:13:00.294Z,-0.9
2023-01-21T12:14:00.309Z,-0.9
2023-01-21T12:15:00.309Z,-0.9
2023-01-21T12:16:00.349Z,-1
2023-01-21T12:17:00.305Z,-1
2023-01-21T12:18:00.335Z,-1.1
2023-01-21T12:19:00.296Z,-1.1
2023-01-21T12:20:00.311Z,-1.1
2023-01-21T12:21:00.313Z,-1.1
2023-01-21T12:22:00.297Z,-1.1
2023-01-21T12:23:00.348Z,-1.1
2023-01-21T12:24:00.314Z,-1.1
2023-01-21T12:25:00.316Z,-1.1
2023-01-21T12:26:00.311Z,-1.1
2023-01-21T12:27:00.302Z,-1.1
2023-01-21T12:28:00.458Z,-1.1
2023-01-21T12:29:00.320Z,-1.1
2023-01-21T12:30:00.333Z,-1.2
2023-01-21T12:31:00.498Z,-1.1
2023-01-21T12:32:00.398Z,-1.1
2023-01-21T12:33:00.303Z,-1.1
2023-01-21T12:34:00.322Z,-1.1
2023-01-21T12:35:00.323Z,-1.1
2023-01-21T12:36:00.314Z,-1.1
2023-01-21T12:37:00.308Z,-1.1
2023-01-21T12:38:00.327Z,-1.1
2023-01-21T12:39:00.335Z,-1
2023-01-21T12:40:00.345Z,-1
2023-01-21T12:41:00.624Z,-1
2023-01-21T12:42:00.337Z,-1
2023-01-21T12:43:00.359Z,-1
2023-01-21T12:44:00.335Z,-1
2023-01-21T12:45:00.332Z,-1
2023-01-21T12:46:00.315Z,-1
2023-01-21T12:47:00.407Z,-0.9
2023-01-21T12:48:00.386Z,-0.9
2023-01-21T12:49:02.037Z,-0.9
2023-01-21T12:50:00.334Z,-0.9
2023-01-21T12:51:00.352Z,-0.9
2023-01-21T12:52:00.337Z,-0.9
2023-01-21T12:53:00.438Z,-0.9
2023-01-21T12:54:00.346Z,-0.9
2023-01-21T12:55:00.417Z,-0.9
2023-01-21T12:56:00.372Z,-0.9
2023-01-21T12:57:00.352Z,-0.9
2023-01-21T12:58:00.424Z,-0.9
2023-01-21T12:59:00.371Z,-0.9
2023-01-21T13:00:00.448Z,-0.9
2023-01-21T13:01:00.495Z,-0.9
2023-01-21T13:02:00.567Z,-0.9
2023-01-21T13:03:00.532Z,-0.8
2023-01-21T13:04:00.391Z,-0.8
2023-01-21T13:05:00.502Z,-0.8
2023-01-21T13:06:00.413Z,-0.8
2023-01-21T13:07:00.433Z,-0.8
2023-01-21T13:08:00.571Z,-0.8
2023-01-21T13:09:00.462Z,-0.8
2023-01-21T13:10:00.492Z,-0.8
2023-01-21T13:11:00.519Z,-0.8
2023-01-21T13:12:00.450Z,-0.8
2023-01-21T13:13:00.450Z,-0.8
2023-01-21T13:14:00.393Z,-0.9
2023-01-21T13:15:00.463Z,-0.9
2023-01-21T13:16:00.531Z,-0.9
2023-01-21T13:17:00.413Z,-0.9
2023-01-21T13:18:00.493Z,-1
2023-01-21T13:19:00.455Z,-0.9
2023-01-21T13:20:00.451Z,-0.9
2023-01-21T13:21:00.371Z,-1